sensor_id;sensor_type;location;lat;lon;timestamp;pressure;altitude;pressure_sealevel;temperature;humidity
18988;BME280;5494;51.796;10.952;2023-05-11T00:01:35;98769.56;;;13.58;100.00
18988;BME280;5494;51.796;10.952;2023-05-11T00:04:04;98768.28;;;13.51;100.00
18988;BME280;5494;51.796;10.952;2023-05-11T00:06:33;98766.72;;;13.49;100.00
18988;BME280;5494;51.796;10.952;2023-05-11T00:09:04;98762.03;;;13.54;100.00
18988;BME280;5494;51.796;10.952;2023-05-11T00:11:32;98760.78;;;13.47;100.00
18988;BME280;5494;51.796;10.952;2023-05-11T00:14:00;98765.78;;;13.50;100.00
18988;BME280;5494;51.796;10.952;2023-05-11T00:16:28;98762.53;;;13.46;100.00
18988;BME280;5494;51.796;10.952;2023-05-11T00:18:56;98764.31;;;13.46;100.00
18988;BME280;5494;51.796;10.952;2023-05-11T00:21:25;98760.13;;;13.43;100.00
18988;BME280;5494;51.796;10.952;2023-05-11T00:23:54;98758.34;;;13.44;100.00
18988;BME280;5494;51.796;10.952;2023-05-11T00:26:22;98757.31;;;13.46;100.00
18988;BME280;5494;51.796;10.952;2023-05-11T00:28:50;98757.72;;;13.40;100.00
18988;BME280;5494;51.796;10.952;2023-05-11T00:31:18;98755.00;;;13.41;100.00
18988;BME280;5494;51.796;10.952;2023-05-11T00:33:46;98754.81;;;13.45;100.00
18988;BME280;5494;51.796;10.952;2023-05-11T00:36:14;98752.78;;;13.35;100.00
18988;BME280;5494;51.796;10.952;2023-05-11T00:38:42;98747.56;;;13.35;100.00
18988;BME280;5494;51.796;10.952;2023-05-11T00:41:11;98757.06;;;13.36;100.00
18988;BME280;5494;51.796;10.952;2023-05-11T00:43:39;98752.78;;;13.35;100.00
18988;BME280;5494;51.796;10.952;2023-05-11T00:46:08;98749.56;;;13.32;100.00
18988;BME280;5494;51.796;10.952;2023-05-11T00:48:36;98751.31;;;13.31;100.00
18988;BME280;5494;51.796;10.952;2023-05-11T00:51:05;98758.41;;;13.29;100.00
18988;BME280;5494;51.796;10.952;2023-05-11T00:53:33;98753.00;;;13.32;100.00
18988;BME280;5494;51.796;10.952;2023-05-11T00:56:02;98757.56;;;13.29;100.00
18988;BME280;5494;51.796;10.952;2023-05-11T00:58:32;98760.31;;;13.27;100.00
18988;BME280;5494;51.796;10.952;2023-05-11T01:01:00;98756.13;;;13.37;100.00
18988;BME280;5494;51.796;10.952;2023-05-11T01:03:29;98758.34;;;13.44;100.00
18988;BME280;5494;51.796;10.952;2023-05-11T01:06:07;98753.22;;;13.42;100.00
18988;BME280;5494;51.796;10.952;2023-05-11T01:08:45;98756.97;;;13.38;100.00
18988;BME280;5494;51.796;10.952;2023-05-11T01:11:22;98755.94;;;13.40;100.00
18988;BME280;5494;51.796;10.952;2023-05-11T01:14:03;98757.69;;;13.27;100.00
18988;BME280;5494;51.796;10.952;2023-05-11T01:16:37;98756.19;;;13.23;100.00
18988;BME280;5494;51.796;10.952;2023-05-11T01:19:17;98760.06;;;13.18;100.00
18988;BME280;5494;51.796;10.952;2023-05-11T01:21:49;98757.44;;;13.18;100.00
18988;BME280;5494;51.796;10.952;2023-05-11T01:24:31;98764.03;;;13.23;100.00
18988;BME280;5494;51.796;10.952;2023-05-11T01:27:41;98758.66;;;13.12;100.00
18988;BME280;5494;51.796;10.952;2023-05-11T01:30:27;98761.66;;;13.06;100.00
18988;BME280;5494;51.796;10.952;2023-05-11T01:33:03;98758.09;;;13.07;100.00
18988;BME280;5494;51.796;10.952;2023-05-11T01:35:38;98764.00;;;12.96;100.00
18988;BME280;5494;51.796;10.952;2023-05-11T01:38:12;98769.53;;;12.92;100.00
18988;BME280;5494;51.796;10.952;2023-05-11T01:40:48;98763.31;;;13.07;100.00
18988;BME280;5494;51.796;10.952;2023-05-11T01:43:22;98767.97;;;13.16;100.00
18988;BME280;5494;51.796;10.952;2023-05-11T01:45:59;98771.56;;;13.28;100.00
18988;BME280;5494;51.796;10.952;2023-05-11T01:48:32;98767.19;;;13.28;100.00
18988;BME280;5494;51.796;10.952;2023-05-11T01:51:03;98771.81;;;13.37;100.00
18988;BME280;5494;51.796;10.952;2023-05-11T01:53:36;98778.19;;;13.33;100.00
18988;BME280;5494;51.796;10.952;2023-05-11T01:56:06;98768.56;;;13.34;100.00
18988;BME280;5494;51.796;10.952;2023-05-11T01:58:37;98772.75;;;13.36;100.00
18988;BME280;5494;51.796;10.952;2023-05-11T02:01:09;98771.81;;;13.37;100.00
18988;BME280;5494;51.796;10.952;2023-05-11T02:03:40;98776.94;;;13.39;100.00
18988;BME280;5494;51.796;10.952;2023-05-11T02:06:12;98777.44;;;13.31;100.00
18988;BME280;5494;51.796;10.952;2023-05-11T02:08:43;98785.25;;;13.31;100.00
18988;BME280;5494;51.796;10.952;2023-05-11T02:11:13;98777.44;;;13.31;100.00
18988;BME280;5494;51.796;10.952;2023-05-11T02:13:44;98775.75;;;13.30;100.00
18988;BME280;5494;51.796;10.952;2023-05-11T02:16:17;98769.94;;;13.39;100.00
18988;BME280;5494;51.796;10.952;2023-05-11T02:18:48;98766.81;;;13.34;100.00
18988;BME280;5494;51.796;10.952;2023-05-11T02:21:17;98767.59;;;13.35;100.00
18988;BME280;5494;51.796;10.952;2023-05-11T02:23:48;98775.75;;;13.30;100.00
18988;BME280;5494;51.796;10.952;2023-05-11T02:26:17;98772.22;;;13.31;100.00
18988;BME280;5494;51.796;10.952;2023-05-11T02:28:45;98776.41;;;13.34;100.00
18988;BME280;5494;51.796;10.952;2023-05-11T02:31:20;98780.78;;;13.33;100.00
18988;BME280;5494;51.796;10.952;2023-05-11T02:33:52;98781.50;;;13.35;100.00
18988;BME280;5494;51.796;10.952;2023-05-11T02:36:25;98781.50;;;13.35;100.00
18988;BME280;5494;51.796;10.952;2023-05-11T02:39:04;98780.88;;;13.32;100.00
18988;BME280;5494;51.796;10.952;2023-05-11T02:41:42;98771.38;;;13.31;100.00
18988;BME280;5494;51.796;10.952;2023-05-11T02:44:14;98778.59;;;13.27;100.00
18988;BME280;5494;51.796;10.952;2023-05-11T02:46:47;98780.03;;;13.31;100.00
18988;BME280;5494;51.796;10.952;2023-05-11T02:49:19;98787.03;;;13.31;100.00
18988;BME280;5494;51.796;10.952;2023-05-11T02:51:51;98788.06;;;13.28;100.00
18988;BME280;5494;51.796;10.952;2023-05-11T02:54:23;98776.16;;;13.24;100.00
18988;BME280;5494;51.796;10.952;2023-05-11T02:56:55;98781.81;;;13.31;100.00
18988;BME280;5494;51.796;10.952;2023-05-11T02:59:24;98779.09;;;13.32;100.00
18988;BME280;5494;51.796;10.952;2023-05-11T03:01:53;98777.44;;;13.31;100.00
18988;BME280;5494;51.796;10.952;2023-05-11T03:04:22;98783.41;;;13.33;100.00
18988;BME280;5494;51.796;10.952;2023-05-11T03:06:51;98786.28;;;13.29;100.00
18988;BME280;5494;51.796;10.952;2023-05-11T03:09:19;98786.63;;;13.37;100.00
18988;BME280;5494;51.796;10.952;2023-05-11T03:11:49;98779.28;;;13.29;100.00
18988;BME280;5494;51.796;10.952;2023-05-11T03:14:18;98781.81;;;13.31;100.00
18988;BME280;5494;51.796;10.952;2023-05-11T03:16:47;98782.84;;;13.28;100.00
18988;BME280;5494;51.796;10.952;2023-05-11T03:19:17;98776.78;;;13.28;100.00
18988;BME280;5494;51.796;10.952;2023-05-11T03:21:46;98780.44;;;13.25;100.00
18988;BME280;5494;51.796;10.952;2023-05-11T03:24:16;98784.28;;;13.20;100.00
18988;BME280;5494;51.796;10.952;2023-05-11T03:26:45;98780.72;;;13.21;100.00
18988;BME280;5494;51.796;10.952;2023-05-11T03:29:15;98781.69;;;13.20;100.00
18988;BME280;5494;51.796;10.952;2023-05-11T03:31:44;98779.91;;;13.20;100.00
18988;BME280;5494;51.796;10.952;2023-05-11T03:34:18;98771.69;;;13.12;100.00
18988;BME280;5494;51.796;10.952;2023-05-11T03:36:51;98775.06;;;13.14;100.00
18988;BME280;5494;51.796;10.952;2023-05-11T03:39:22;98782.41;;;13.22;100.00
18988;BME280;5494;51.796;10.952;2023-05-11T03:41:52;98776.34;;;13.21;100.00
18988;BME280;5494;51.796;10.952;2023-05-11T03:44:22;98779.34;;;13.15;100.00
18988;BME280;5494;51.796;10.952;2023-05-11T03:46:53;98776.25;;;13.09;100.00
18988;BME280;5494;51.796;10.952;2023-05-11T03:49:24;98780.28;;;13.14;100.00
18988;BME280;5494;51.796;10.952;2023-05-11T03:51:53;98771.34;;;13.18;100.00
18988;BME280;5494;51.796;10.952;2023-05-11T03:54:23;98773.22;;;13.29;100.00
18988;BME280;5494;51.796;10.952;2023-05-11T03:56:52;98774.28;;;13.26;100.00
18988;BME280;5494;51.796;10.952;2023-05-11T03:59:20;98767.97;;;13.16;100.00
18988;BME280;5494;51.796;10.952;2023-05-11T04:01:50;98768.19;;;13.13;100.00
18988;BME280;5494;51.796;10.952;2023-05-11T04:04:19;98771.34;;;13.18;100.00
18988;BME280;5494;51.796;10.952;2023-05-11T04:06:50;98771.25;;;13.20;100.00
18988;BME280;5494;51.796;10.952;2023-05-11T04:09:20;98765.31;;;13.30;100.00
18988;BME280;5494;51.796;10.952;2023-05-11T04:11:50;98765.22;;;13.32;100.00
18988;BME280;5494;51.796;10.952;2023-05-11T04:14:18;98764.63;;;13.41;100.00
18988;BME280;5494;51.796;10.952;2023-05-11T04:16:47;98765.22;;;13.32;100.00
18988;BME280;5494;51.796;10.952;2023-05-11T04:19:15;98767.00;;;13.31;100.00
18988;BME280;5494;51.796;10.952;2023-05-11T04:21:43;98765.84;;;13.35;100.00
18988;BME280;5494;51.796;10.952;2023-05-11T04:24:13;98766.59;;;13.37;100.00
18988;BME280;5494;51.796;10.952;2023-05-11T04:26:41;98767.75;;;13.33;100.00
18988;BME280;5494;51.796;10.952;2023-05-11T04:29:09;98769.09;;;13.39;100.00
18988;BME280;5494;51.796;10.952;2023-05-11T04:31:37;98767.94;;;13.43;100.00
18988;BME280;5494;51.796;10.952;2023-05-11T04:34:06;98773.25;;;13.41;100.00
18988;BME280;5494;51.796;10.952;2023-05-11T04:36:35;98769.28;;;13.36;100.00
18988;BME280;5494;51.796;10.952;2023-05-11T04:39:03;98775.06;;;13.41;100.00
18988;BME280;5494;51.796;10.952;2023-05-11T04:41:37;98776.09;;;13.38;100.00
18988;BME280;5494;51.796;10.952;2023-05-11T04:44:06;98766.69;;;13.36;100.00
18988;BME280;5494;51.796;10.952;2023-05-11T04:46:34;98763.22;;;13.35;100.00
18988;BME280;5494;51.796;10.952;2023-05-11T04:49:04;98771.72;;;13.39;100.00
18988;BME280;5494;51.796;10.952;2023-05-11T04:51:34;98783.09;;;13.38;100.00
18988;BME280;5494;51.796;10.952;2023-05-11T04:54:03;98773.91;;;13.45;100.00
18988;BME280;5494;51.796;10.952;2023-05-11T04:56:31;98781.88;;;13.56;100.00
18988;BME280;5494;51.796;10.952;2023-05-11T04:59:00;98777.31;;;13.60;100.00
18988;BME280;5494;51.796;10.952;2023-05-11T05:01:31;98781.28;;;13.65;100.00
18988;BME280;5494;51.796;10.952;2023-05-11T05:03:59;98777.31;;;13.60;100.00
18988;BME280;5494;51.796;10.952;2023-05-11T05:06:27;98780.84;;;13.59;100.00
18988;BME280;5494;51.796;10.952;2023-05-11T05:08:55;98779.91;;;13.60;100.00
18988;BME280;5494;51.796;10.952;2023-05-11T05:11:24;98781.94;;;13.69;100.00
18988;BME280;5494;51.796;10.952;2023-05-11T05:13:53;98780.13;;;13.69;100.00
18988;BME280;5494;51.796;10.952;2023-05-11T05:16:23;98779.94;;;13.72;100.00
18988;BME280;5494;51.796;10.952;2023-05-11T05:18:51;98782.63;;;13.71;100.00
18988;BME280;5494;51.796;10.952;2023-05-11T05:21:19;98777.75;;;13.79;100.00
18988;BME280;5494;51.796;10.952;2023-05-11T05:23:48;98780.47;;;13.90;100.00
18988;BME280;5494;51.796;10.952;2023-05-11T05:26:16;98787.50;;;13.90;100.00
18988;BME280;5494;51.796;10.952;2023-05-11T05:28:45;98785.69;;;13.90;100.00
18988;BME280;5494;51.796;10.952;2023-05-11T05:31:13;98788.34;;;14.03;100.00
18988;BME280;5494;51.796;10.952;2023-05-11T05:33:43;98788.53;;;14.00;100.00
18988;BME280;5494;51.796;10.952;2023-05-11T05:36:11;98789.88;;;14.05;100.00
18988;BME280;5494;51.796;10.952;2023-05-11T05:38:41;98801.41;;;14.03;100.00
18988;BME280;5494;51.796;10.952;2023-05-11T05:41:10;98790.63;;;13.95;100.00
18988;BME280;5494;51.796;10.952;2023-05-11T05:43:41;98794.91;;;13.96;100.00
18988;BME280;5494;51.796;10.952;2023-05-11T05:46:09;98799.81;;;14.00;100.00
18988;BME280;5494;51.796;10.952;2023-05-11T05:48:37;98803.59;;;13.96;100.00
18988;BME280;5494;51.796;10.952;2023-05-11T05:51:06;98799.63;;;14.03;100.00
18988;BME280;5494;51.796;10.952;2023-05-11T05:53:34;98804.00;;;14.03;100.00
18988;BME280;5494;51.796;10.952;2023-05-11T05:56:04;98805.78;;;14.02;100.00
18988;BME280;5494;51.796;10.952;2023-05-11T05:58:32;98807.25;;;14.06;100.00
18988;BME280;5494;51.796;10.952;2023-05-11T06:01:00;98803.28;;;14.13;100.00
18988;BME280;5494;51.796;10.952;2023-05-11T06:03:28;98805.38;;;14.08;100.00
18988;BME280;5494;51.796;10.952;2023-05-11T06:05:56;98810.59;;;14.08;100.00
18988;BME280;5494;51.796;10.952;2023-05-11T06:08:25;98807.47;;;14.16;100.00
18988;BME280;5494;51.796;10.952;2023-05-11T06:10:53;98807.47;;;14.16;100.00
18988;BME280;5494;51.796;10.952;2023-05-11T06:13:22;98807.06;;;14.09;100.00
18988;BME280;5494;51.796;10.952;2023-05-11T06:15:51;98818.03;;;14.14;100.00
18988;BME280;5494;51.796;10.952;2023-05-11T06:18:30;98809.75;;;14.08;100.00
18988;BME280;5494;51.796;10.952;2023-05-11T06:20:59;98811.22;;;13.99;100.00
18988;BME280;5494;51.796;10.952;2023-05-11T06:23:31;98808.28;;;14.04;100.00
18988;BME280;5494;51.796;10.952;2023-05-11T06:25:59;98803.50;;;14.10;100.00
18988;BME280;5494;51.796;10.952;2023-05-11T06:28:29;98802.44;;;14.00;100.00
18988;BME280;5494;51.796;10.952;2023-05-11T06:31:02;98807.56;;;14.02;100.00
18988;BME280;5494;51.796;10.952;2023-05-11T06:33:33;98805.56;;;14.05;100.00
18988;BME280;5494;51.796;10.952;2023-05-11T06:36:05;98797.44;;;14.10;100.00
18988;BME280;5494;51.796;10.952;2023-05-11T06:38:36;98803.38;;;14.12;100.00
18988;BME280;5494;51.796;10.952;2023-05-11T06:41:06;98801.19;;;14.18;100.00
18988;BME280;5494;51.796;10.952;2023-05-11T06:43:37;98800.16;;;14.08;100.00
18988;BME280;5494;51.796;10.952;2023-05-11T06:46:16;98792.91;;;14.12;100.00
18988;BME280;5494;51.796;10.952;2023-05-11T06:48:44;98795.34;;;14.02;100.00
18988;BME280;5494;51.796;10.952;2023-05-11T06:51:12;98795.53;;;13.99;100.00
18988;BME280;5494;51.796;10.952;2023-05-11T06:53:44;98805.38;;;13.96;100.00
18988;BME280;5494;51.796;10.952;2023-05-11T06:56:12;98803.03;;;13.91;100.00
18988;BME280;5494;51.796;10.952;2023-05-11T06:58:40;98805.22;;;13.85;100.00
18988;BME280;5494;51.796;10.952;2023-05-11T07:01:10;98804.81;;;13.78;100.00
18988;BME280;5494;51.796;10.952;2023-05-11T07:03:38;98808.22;;;13.66;100.00
18988;BME280;5494;51.796;10.952;2023-05-11T07:06:06;98805.31;;;13.70;100.00
18988;BME280;5494;51.796;10.952;2023-05-11T07:08:34;98808.59;;;13.87;100.00
18988;BME280;5494;51.796;10.952;2023-05-11T07:11:03;98808.50;;;13.88;100.00
18988;BME280;5494;51.796;10.952;2023-05-11T07:13:32;98804.72;;;13.92;100.00
18988;BME280;5494;51.796;10.952;2023-05-11T07:16:00;98807.13;;;13.95;100.00
18988;BME280;5494;51.796;10.952;2023-05-11T07:18:28;98808.25;;;13.78;100.00
18988;BME280;5494;51.796;10.952;2023-05-11T07:20:56;98801.16;;;13.93;100.00
18988;BME280;5494;51.796;10.952;2023-05-11T07:23:24;98804.53;;;13.95;100.00
18988;BME280;5494;51.796;10.952;2023-05-11T07:25:52;98801.06;;;13.95;100.00
18988;BME280;5494;51.796;10.952;2023-05-11T07:28:24;98809.25;;;14.15;100.00
18988;BME280;5494;51.796;10.952;2023-05-11T07:30:52;98806.41;;;14.06;100.00
18988;BME280;5494;51.796;10.952;2023-05-11T07:33:20;98814.75;;;14.11;100.00
18988;BME280;5494;51.796;10.952;2023-05-11T07:35:50;98813.63;;;14.15;100.00
18988;BME280;5494;51.796;10.952;2023-05-11T07:38:18;98814.38;;;14.17;100.00
18988;BME280;5494;51.796;10.952;2023-05-11T07:40:46;98815.00;;;14.20;100.00
18988;BME280;5494;51.796;10.952;2023-05-11T07:43:14;98813.72;;;14.26;100.00
18988;BME280;5494;51.796;10.952;2023-05-11T07:45:43;98816.06;;;14.31;100.00
18988;BME280;5494;51.796;10.952;2023-05-11T07:48:11;98804.31;;;14.36;100.00
18988;BME280;5494;51.796;10.952;2023-05-11T07:50:39;98819.63;;;14.42;100.00
18988;BME280;5494;51.796;10.952;2023-05-11T07:53:08;98811.69;;;14.44;100.00
18988;BME280;5494;51.796;10.952;2023-05-11T07:55:36;98812.19;;;14.49;100.00
18988;BME280;5494;51.796;10.952;2023-05-11T07:58:04;98809.38;;;14.52;100.00
18988;BME280;5494;51.796;10.952;2023-05-11T08:00:33;98807.91;;;14.48;100.00
18988;BME280;5494;51.796;10.952;2023-05-11T08:03:03;98812.94;;;14.51;100.00
18988;BME280;5494;51.796;10.952;2023-05-11T08:05:32;98805.50;;;14.57;100.00
18988;BME280;5494;51.796;10.952;2023-05-11T08:08:03;98812.78;;;14.52;100.00
18988;BME280;5494;51.796;10.952;2023-05-11T08:10:31;98814.59;;;14.52;100.00
18988;BME280;5494;51.796;10.952;2023-05-11T08:12:59;98814.03;;;14.59;100.00
18988;BME280;5494;51.796;10.952;2023-05-11T08:15:28;98815.13;;;14.57;100.00
18988;BME280;5494;51.796;10.952;2023-05-11T08:17:56;98821.78;;;14.61;100.00
18988;BME280;5494;51.796;10.952;2023-05-11T08:20:26;98822.44;;;14.52;100.00
18988;BME280;5494;51.796;10.952;2023-05-11T08:22:54;98814.59;;;14.52;100.00
18988;BME280;5494;51.796;10.952;2023-05-11T08:25:22;98816.25;;;14.53;100.00
18988;BME280;5494;51.796;10.952;2023-05-11T08:27:50;98812.25;;;14.60;100.00
18988;BME280;5494;51.796;10.952;2023-05-11T08:30:18;98825.78;;;14.54;100.00
18988;BME280;5494;51.796;10.952;2023-05-11T08:32:46;98820.25;;;14.58;100.00
18988;BME280;5494;51.796;10.952;2023-05-11T08:35:24;98824.22;;;14.64;100.00
18988;BME280;5494;51.796;10.952;2023-05-11T08:37:53;98823.53;;;14.73;100.00
18988;BME280;5494;51.796;10.952;2023-05-11T08:40:25;98830.59;;;14.73;100.00
18988;BME280;5494;51.796;10.952;2023-05-11T08:42:55;98827.66;;;14.65;100.00
18988;BME280;5494;51.796;10.952;2023-05-11T08:45:25;98827.63;;;14.77;100.00
18988;BME280;5494;51.796;10.952;2023-05-11T08:47:53;98826.81;;;14.77;100.00
18988;BME280;5494;51.796;10.952;2023-05-11T08:50:21;98830.16;;;14.66;100.00
18988;BME280;5494;51.796;10.952;2023-05-11T08:52:49;98830.88;;;14.81;100.00
18988;BME280;5494;51.796;10.952;2023-05-11T08:55:20;98826.78;;;14.89;100.00
18988;BME280;5494;51.796;10.952;2023-05-11T08:57:52;98824.78;;;14.93;100.00
18988;BME280;5494;51.796;10.952;2023-05-11T09:00:21;98821.19;;;14.94;100.00
18988;BME280;5494;51.796;10.952;2023-05-11T09:02:50;98828.25;;;14.93;100.00
18988;BME280;5494;51.796;10.952;2023-05-11T09:05:19;98827.28;;;14.94;100.00
18988;BME280;5494;51.796;10.952;2023-05-11T09:07:51;98831.06;;;14.90;100.00
18988;BME280;5494;51.796;10.952;2023-05-11T09:10:23;98821.63;;;14.88;100.00
18988;BME280;5494;51.796;10.952;2023-05-11T09:12:51;98822.91;;;14.82;100.00
18988;BME280;5494;51.796;10.952;2023-05-11T09:15:19;98821.31;;;14.92;100.00
18988;BME280;5494;51.796;10.952;2023-05-11T09:17:47;98818.22;;;15.11;100.00
18988;BME280;5494;51.796;10.952;2023-05-11T09:20:25;98813.00;;;15.35;100.00
18988;BME280;5494;51.796;10.952;2023-05-11T09:22:54;98817.56;;;15.44;100.00
18988;BME280;5494;51.796;10.952;2023-05-11T09:25:25;98814.00;;;15.45;100.00
18988;BME280;5494;51.796;10.952;2023-05-11T09:27:53;98816.41;;;15.48;100.00
18988;BME280;5494;51.796;10.952;2023-05-11T09:30:22;98814.03;;;15.69;100.00
18988;BME280;5494;51.796;10.952;2023-05-11T09:32:53;98807.69;;;16.06;100.00
18988;BME280;5494;51.796;10.952;2023-05-11T09:35:23;98807.84;;;16.38;100.00
18988;BME280;5494;51.796;10.952;2023-05-11T09:38:04;98806.09;;;16.72;100.00
18988;BME280;5494;51.796;10.952;2023-05-11T09:40:37;98808.34;;;17.31;100.00
18988;BME280;5494;51.796;10.952;2023-05-11T09:43:16;98801.25;;;17.54;100.00
18988;BME280;5494;51.796;10.952;2023-05-11T09:45:50;98805.81;;;17.84;100.00
18988;BME280;5494;51.796;10.952;2023-05-11T09:48:28;98794.94;;;17.77;100.00
18988;BME280;5494;51.796;10.952;2023-05-11T09:51:04;98801.97;;;17.56;100.00
18988;BME280;5494;51.796;10.952;2023-05-11T09:53:39;98804.59;;;17.45;100.00
18988;BME280;5494;51.796;10.952;2023-05-11T09:56:11;98812.13;;;17.49;100.00
18988;BME280;5494;51.796;10.952;2023-05-11T09:58:48;98809.38;;;17.83;100.00
18988;BME280;5494;51.796;10.952;2023-05-11T10:01:27;98807.38;;;17.75;100.00
18988;BME280;5494;51.796;10.952;2023-05-11T10:03:56;98805.63;;;17.64;100.00
18988;BME280;5494;51.796;10.952;2023-05-11T10:06:47;98798.34;;;17.89;100.00
18988;BME280;5494;51.796;10.952;2023-05-11T10:09:21;98790.16;;;18.03;100.00
18988;BME280;5494;51.796;10.952;2023-05-11T10:11:54;98791.91;;;17.61;100.00
18988;BME280;5494;51.796;10.952;2023-05-11T10:14:26;98802.75;;;17.24;100.00
18988;BME280;5494;51.796;10.952;2023-05-11T10:16:57;98790.75;;;17.43;100.00
18988;BME280;5494;51.796;10.952;2023-05-11T10:19:26;98793.97;;;17.03;100.00
18988;BME280;5494;51.796;10.952;2023-05-11T10:21:55;98800.56;;;16.98;100.00
18988;BME280;5494;51.796;10.952;2023-05-11T10:24:24;98786.47;;;16.99;100.00
18988;BME280;5494;51.796;10.952;2023-05-11T10:26:56;98779.06;;;17.36;100.00
18988;BME280;5494;51.796;10.952;2023-05-11T10:29:25;98788.19;;;17.63;100.00
18988;BME280;5494;51.796;10.952;2023-05-11T10:31:56;98782.63;;;17.78;100.00
18988;BME280;5494;51.796;10.952;2023-05-11T10:34:26;98783.91;;;17.62;100.00
18988;BME280;5494;51.796;10.952;2023-05-11T10:36:58;98783.53;;;17.67;100.00
18988;BME280;5494;51.796;10.952;2023-05-11T10:39:28;98775.06;;;17.52;100.00
18988;BME280;5494;51.796;10.952;2023-05-11T10:42:15;98776.66;;;17.44;100.00
18988;BME280;5494;51.796;10.952;2023-05-11T10:45:21;98774.94;;;17.54;100.00
18988;BME280;5494;51.796;10.952;2023-05-11T10:48:31;98785.13;;;17.79;100.00
18988;BME280;5494;51.796;10.952;2023-05-11T10:51:25;98780.31;;;17.84;100.00
18988;BME280;5494;51.796;10.952;2023-05-11T10:54:20;98783.59;;;17.45;100.00
18988;BME280;5494;51.796;10.952;2023-05-11T10:57:12;98781.22;;;17.42;100.00
18988;BME280;5494;51.796;10.952;2023-05-11T11:00:23;98774.63;;;17.47;100.00
18988;BME280;5494;51.796;10.952;2023-05-11T11:03:10;98779.09;;;17.56;100.00
18988;BME280;5494;51.796;10.952;2023-05-11T11:05:39;98775.97;;;17.74;100.00
18988;BME280;5494;51.796;10.952;2023-05-11T11:08:10;98779.94;;;17.57;100.00
18988;BME280;5494;51.796;10.952;2023-05-11T11:10:40;98787.75;;;17.79;100.00
18988;BME280;5494;51.796;10.952;2023-05-11T11:13:15;98784.28;;;18.20;100.00
18988;BME280;5494;51.796;10.952;2023-05-11T11:16:10;98785.06;;;18.62;100.00
18988;BME280;5494;51.796;10.952;2023-05-11T11:18:42;98775.28;;;18.74;100.00
18988;BME280;5494;51.796;10.952;2023-05-11T11:21:10;98772.13;;;18.99;100.00
18988;BME280;5494;51.796;10.952;2023-05-11T11:23:43;98772.19;;;19.28;100.00
18988;BME280;5494;51.796;10.952;2023-05-11T11:26:16;98777.22;;;19.70;100.00
18988;BME280;5494;51.796;10.952;2023-05-11T11:29:09;98776.66;;;19.66;100.00
18988;BME280;5494;51.796;10.952;2023-05-11T11:31:39;98771.34;;;19.37;100.00
18988;BME280;5494;51.796;10.952;2023-05-11T11:34:33;98768.56;;;19.39;100.00
18988;BME280;5494;51.796;10.952;2023-05-11T11:37:06;98773.66;;;19.02;100.00
18988;BME280;5494;51.796;10.952;2023-05-11T11:39:52;98773.19;;;18.77;100.00
18988;BME280;5494;51.796;10.952;2023-05-11T11:42:41;98780.31;;;18.56;100.00
18988;BME280;5494;51.796;10.952;2023-05-11T11:45:29;98776.63;;;18.38;100.00
18988;BME280;5494;51.796;10.952;2023-05-11T11:48:13;98776.34;;;18.10;100.00
18988;BME280;5494;51.796;10.952;2023-05-11T11:50:44;98784.59;;;18.06;100.00
18988;BME280;5494;51.796;10.952;2023-05-11T11:53:57;98781.41;;;17.82;100.00
18988;BME280;5494;51.796;10.952;2023-05-11T11:56:40;98784.50;;;17.55;100.00
18988;BME280;5494;51.796;10.952;2023-05-11T11:59:13;98781.72;;;17.67;100.00
18988;BME280;5494;51.796;10.952;2023-05-11T12:01:44;98785.75;;;17.92;100.00
18988;BME280;5494;51.796;10.952;2023-05-11T12:04:37;98787.38;;;18.25;100.00
18988;BME280;5494;51.796;10.952;2023-05-11T12:07:08;98776.91;;;18.65;100.00
18988;BME280;5494;51.796;10.952;2023-05-11T12:09:38;98778.25;;;19.00;100.00
18988;BME280;5494;51.796;10.952;2023-05-11T12:12:08;98772.97;;;19.09;100.00
18988;BME280;5494;51.796;10.952;2023-05-11T12:14:38;98777.69;;;19.15;100.00
18988;BME280;5494;51.796;10.952;2023-05-11T12:17:09;98780.31;;;19.15;100.00
18988;BME280;5494;51.796;10.952;2023-05-11T12:19:42;98783.69;;;19.27;100.00
18988;BME280;5494;51.796;10.952;2023-05-11T12:22:11;98782.34;;;19.61;100.00
18988;BME280;5494;51.796;10.952;2023-05-11T12:24:42;98779.22;;;20.14;94.68
18988;BME280;5494;51.796;10.952;2023-05-11T12:27:10;98774.72;;;20.43;89.47
18988;BME280;5494;51.796;10.952;2023-05-11T12:29:39;98780.69;;;19.60;91.76
18988;BME280;5494;51.796;10.952;2023-05-11T12:32:11;98779.38;;;19.07;97.35
18988;BME280;5494;51.796;10.952;2023-05-11T12:34:40;98776.69;;;18.87;100.00
18988;BME280;5494;51.796;10.952;2023-05-11T12:37:08;98776.00;;;18.85;100.00
18988;BME280;5494;51.796;10.952;2023-05-11T12:39:36;98770.69;;;18.76;100.00
18988;BME280;5494;51.796;10.952;2023-05-11T12:42:05;98766.78;;;18.70;100.00
18988;BME280;5494;51.796;10.952;2023-05-11T12:44:33;98773.53;;;18.33;100.00
18988;BME280;5494;51.796;10.952;2023-05-11T12:47:02;98769.69;;;18.37;100.00
18988;BME280;5494;51.796;10.952;2023-05-11T12:49:32;98775.13;;;18.75;100.00
18988;BME280;5494;51.796;10.952;2023-05-11T12:52:02;98773.63;;;18.52;100.00
18988;BME280;5494;51.796;10.952;2023-05-11T12:54:35;98772.72;;;18.32;100.00
18988;BME280;5494;51.796;10.952;2023-05-11T12:57:06;98781.47;;;18.63;100.00
18988;BME280;5494;51.796;10.952;2023-05-11T12:59:38;98758.94;;;18.80;100.00
18988;BME280;5494;51.796;10.952;2023-05-11T13:02:14;98770.38;;;19.19;100.00
18988;BME280;5494;51.796;10.952;2023-05-11T13:04:46;98767.72;;;19.19;99.97
18988;BME280;5494;51.796;10.952;2023-05-11T13:07:27;98759.47;;;18.74;100.00
18988;BME280;5494;51.796;10.952;2023-05-11T13:09:56;98761.47;;;19.01;100.00
18988;BME280;5494;51.796;10.952;2023-05-11T13:12:25;98752.22;;;19.54;96.83
18988;BME280;5494;51.796;10.952;2023-05-11T13:15:06;98755.06;;;19.99;94.96